sensor_id;sensor_type;location;lat;lon;timestamp;temperature;humidity
18240;DHT22;9244;50.828;4.718;2023-07-29T00:01:30;19.10;99.90
18240;DHT22;9244;50.828;4.718;2023-07-29T00:03:56;19.00;99.90
18240;DHT22;9244;50.828;4.718;2023-07-29T00:06:22;19.00;99.90
18240;DHT22;9244;50.828;4.718;2023-07-29T00:08:47;19.10;99.90
18240;DHT22;9244;50.828;4.718;2023-07-29T00:11:13;19.00;99.90
18240;DHT22;9244;50.828;4.718;2023-07-29T00:13:39;19.00;99.90
18240;DHT22;9244;50.828;4.718;2023-07-29T00:16:04;19.00;99.90
18240;DHT22;9244;50.828;4.718;2023-07-29T00:18:30;19.00;99.90
18240;DHT22;9244;50.828;4.718;2023-07-29T00:20:56;19.00;99.90
18240;DHT22;9244;50.828;4.718;2023-07-29T00:23:23;19.00;99.90
18240;DHT22;9244;50.828;4.718;2023-07-29T00:25:48;19.00;99.90
18240;DHT22;9244;50.828;4.718;2023-07-29T00:28:14;19.00;99.90
18240;DHT22;9244;50.828;4.718;2023-07-29T00:30:40;19.00;99.90
18240;DHT22;9244;50.828;4.718;2023-07-29T00:33:05;18.90;99.90
18240;DHT22;9244;50.828;4.718;2023-07-29T00:35:31;18.80;99.90
18240;DHT22;9244;50.828;4.718;2023-07-29T00:37:56;18.80;99.90
18240;DHT22;9244;50.828;4.718;2023-07-29T00:40:22;18.80;99.90
18240;DHT22;9244;50.828;4.718;2023-07-29T00:42:49;18.70;99.90
18240;DHT22;9244;50.828;4.718;2023-07-29T00:45:15;18.70;99.90
18240;DHT22;9244;50.828;4.718;2023-07-29T00:47:42;18.60;99.90
18240;DHT22;9244;50.828;4.718;2023-07-29T00:50:09;18.60;99.90
18240;DHT22;9244;50.828;4.718;2023-07-29T00:52:35;18.50;99.90
18240;DHT22;9244;50.828;4.718;2023-07-29T00:55:01;18.40;99.90
18240;DHT22;9244;50.828;4.718;2023-07-29T00:57:29;18.30;99.90
18240;DHT22;9244;50.828;4.718;2023-07-29T00:59:55;18.30;99.90
18240;DHT22;9244;50.828;4.718;2023-07-29T01:02:21;18.20;99.90
18240;DHT22;9244;50.828;4.718;2023-07-29T01:04:57;18.20;99.90
18240;DHT22;9244;50.828;4.718;2023-07-29T01:13:17;18.00;99.90
18240;DHT22;9244;50.828;4.718;2023-07-29T01:16:10;18.00;99.90
18240;DHT22;9244;50.828;4.718;2023-07-29T01:18:39;17.90;99.90
18240;DHT22;9244;50.828;4.718;2023-07-29T01:21:08;17.80;99.90
18240;DHT22;9244;50.828;4.718;2023-07-29T01:23:35;17.80;99.90
18240;DHT22;9244;50.828;4.718;2023-07-29T01:26:02;17.80;99.90
18240;DHT22;9244;50.828;4.718;2023-07-29T01:28:28;17.70;99.90
18240;DHT22;9244;50.828;4.718;2023-07-29T01:31:03;17.70;99.90
18240;DHT22;9244;50.828;4.718;2023-07-29T01:33:59;17.60;99.90
18240;DHT22;9244;50.828;4.718;2023-07-29T01:36:29;17.60;99.90
18240;DHT22;9244;50.828;4.718;2023-07-29T01:38:56;17.60;99.90
18240;DHT22;9244;50.828;4.718;2023-07-29T01:41:22;17.50;99.90
18240;DHT22;9244;50.828;4.718;2023-07-29T01:43:50;17.50;99.90
18240;DHT22;9244;50.828;4.718;2023-07-29T01:46:16;17.50;99.90
18240;DHT22;9244;50.828;4.718;2023-07-29T01:48:42;17.50;99.90
18240;DHT22;9244;50.828;4.718;2023-07-29T01:51:08;17.50;99.90
18240;DHT22;9244;50.828;4.718;2023-07-29T01:53:34;17.40;99.90
18240;DHT22;9244;50.828;4.718;2023-07-29T01:56:00;17.40;99.90
18240;DHT22;9244;50.828;4.718;2023-07-29T01:58:27;17.40;99.90
18240;DHT22;9244;50.828;4.718;2023-07-29T02:00:52;17.40;99.90
18240;DHT22;9244;50.828;4.718;2023-07-29T02:03:18;17.40;99.90
18240;DHT22;9244;50.828;4.718;2023-07-29T02:05:43;17.40;99.90
18240;DHT22;9244;50.828;4.718;2023-07-29T02:08:10;17.40;99.90
18240;DHT22;9244;50.828;4.718;2023-07-29T02:10:35;17.40;99.90
18240;DHT22;9244;50.828;4.718;2023-07-29T02:13:04;17.30;99.90
18240;DHT22;9244;50.828;4.718;2023-07-29T02:15:29;17.30;99.90
18240;DHT22;9244;50.828;4.718;2023-07-29T02:17:55;17.30;99.90
18240;DHT22;9244;50.828;4.718;2023-07-29T02:20:21;17.30;99.90
18240;DHT22;9244;50.828;4.718;2023-07-29T02:22:47;17.20;99.90
18240;DHT22;9244;50.828;4.718;2023-07-29T02:25:14;17.20;99.90
18240;DHT22;9244;50.828;4.718;2023-07-29T02:27:39;17.20;99.90
18240;DHT22;9244;50.828;4.718;2023-07-29T02:30:06;17.10;99.90
18240;DHT22;9244;50.828;4.718;2023-07-29T02:32:32;17.10;99.90
18240;DHT22;9244;50.828;4.718;2023-07-29T02:34:57;17.10;99.90
18240;DHT22;9244;50.828;4.718;2023-07-29T02:37:23;17.10;99.90
18240;DHT22;9244;50.828;4.718;2023-07-29T02:39:48;17.10;99.90
18240;DHT22;9244;50.828;4.718;2023-07-29T02:42:14;17.10;99.90
18240;DHT22;9244;50.828;4.718;2023-07-29T02:44:40;17.10;99.90
18240;DHT22;9244;50.828;4.718;2023-07-29T02:47:06;17.00;99.90
18240;DHT22;9244;50.828;4.718;2023-07-29T02:49:31;17.00;99.90
18240;DHT22;9244;50.828;4.718;2023-07-29T02:51:57;17.00;99.90
18240;DHT22;9244;50.828;4.718;2023-07-29T02:54:22;17.00;99.90
18240;DHT22;9244;50.828;4.718;2023-07-29T02:56:50;16.90;99.90
18240;DHT22;9244;50.828;4.718;2023-07-29T02:59:15;16.90;99.90
18240;DHT22;9244;50.828;4.718;2023-07-29T03:01:41;16.90;99.90
18240;DHT22;9244;50.828;4.718;2023-07-29T03:04:07;17.00;99.90
18240;DHT22;9244;50.828;4.718;2023-07-29T03:06:33;16.90;99.90
18240;DHT22;9244;50.828;4.718;2023-07-29T03:08:59;16.90;99.90
18240;DHT22;9244;50.828;4.718;2023-07-29T03:11:24;16.90;99.90
18240;DHT22;9244;50.828;4.718;2023-07-29T03:13:50;16.90;99.90
18240;DHT22;9244;50.828;4.718;2023-07-29T03:16:17;16.90;99.90
18240;DHT22;9244;50.828;4.718;2023-07-29T03:18:43;16.90;99.90
18240;DHT22;9244;50.828;4.718;2023-07-29T03:21:10;16.80;99.90
18240;DHT22;9244;50.828;4.718;2023-07-29T03:23:36;16.80;99.90
18240;DHT22;9244;50.828;4.718;2023-07-29T03:26:03;16.80;99.90
18240;DHT22;9244;50.828;4.718;2023-07-29T03:28:36;16.80;99.90
18240;DHT22;9244;50.828;4.718;2023-07-29T03:31:02;16.80;99.90
18240;DHT22;9244;50.828;4.718;2023-07-29T03:33:28;16.80;99.90
18240;DHT22;9244;50.828;4.718;2023-07-29T03:35:54;16.70;99.90
18240;DHT22;9244;50.828;4.718;2023-07-29T03:38:20;16.70;99.90
18240;DHT22;9244;50.828;4.718;2023-07-29T03:40:46;16.70;99.90
18240;DHT22;9244;50.828;4.718;2023-07-29T03:43:11;16.70;99.90
18240;DHT22;9244;50.828;4.718;2023-07-29T03:45:37;16.70;99.90
18240;DHT22;9244;50.828;4.718;2023-07-29T03:48:03;16.60;99.90
18240;DHT22;9244;50.828;4.718;2023-07-29T03:50:30;16.60;99.90
18240;DHT22;9244;50.828;4.718;2023-07-29T03:52:56;16.60;99.90
18240;DHT22;9244;50.828;4.718;2023-07-29T03:55:22;16.60;99.90
18240;DHT22;9244;50.828;4.718;2023-07-29T03:57:48;16.60;99.90
18240;DHT22;9244;50.828;4.718;2023-07-29T04:00:14;16.60;99.90
18240;DHT22;9244;50.828;4.718;2023-07-29T04:02:40;16.60;99.90
18240;DHT22;9244;50.828;4.718;2023-07-29T04:05:06;16.60;99.90
18240;DHT22;9244;50.828;4.718;2023-07-29T04:07:36;16.60;99.90
18240;DHT22;9244;50.828;4.718;2023-07-29T04:10:03;16.60;99.90
18240;DHT22;9244;50.828;4.718;2023-07-29T04:12:29;16.60;99.90
18240;DHT22;9244;50.828;4.718;2023-07-29T04:14:54;16.60;99.90
18240;DHT22;9244;50.828;4.718;2023-07-29T04:17:20;16.60;99.90
18240;DHT22;9244;50.828;4.718;2023-07-29T04:19:45;16.60;99.90
18240;DHT22;9244;50.828;4.718;2023-07-29T04:22:11;16.60;99.90
18240;DHT22;9244;50.828;4.718;2023-07-29T04:24:37;16.60;99.90
18240;DHT22;9244;50.828;4.718;2023-07-29T04:27:03;16.70;99.90
18240;DHT22;9244;50.828;4.718;2023-07-29T04:29:29;16.70;99.90
18240;DHT22;9244;50.828;4.718;2023-07-29T04:31:55;16.60;99.90
18240;DHT22;9244;50.828;4.718;2023-07-29T04:34:20;16.70;99.90
18240;DHT22;9244;50.828;4.718;2023-07-29T04:36:47;16.60;99.90
18240;DHT22;9244;50.828;4.718;2023-07-29T04:39:13;16.60;99.90
18240;DHT22;9244;50.828;4.718;2023-07-29T04:41:38;16.60;99.90
18240;DHT22;9244;50.828;4.718;2023-07-29T04:44:04;16.70;99.90
18240;DHT22;9244;50.828;4.718;2023-07-29T04:46:30;16.70;99.90
18240;DHT22;9244;50.828;4.718;2023-07-29T04:48:55;16.60;99.90
18240;DHT22;9244;50.828;4.718;2023-07-29T04:51:21;16.70;99.90
18240;DHT22;9244;50.828;4.718;2023-07-29T04:53:47;16.70;99.90
18240;DHT22;9244;50.828;4.718;2023-07-29T04:56:13;16.80;99.90
18240;DHT22;9244;50.828;4.718;2023-07-29T04:58:39;16.70;99.90
18240;DHT22;9244;50.828;4.718;2023-07-29T05:01:05;16.80;99.90
18240;DHT22;9244;50.828;4.718;2023-07-29T05:03:31;16.70;99.90
18240;DHT22;9244;50.828;4.718;2023-07-29T05:05:58;16.70;99.90
18240;DHT22;9244;50.828;4.718;2023-07-29T05:08:23;16.70;99.90
18240;DHT22;9244;50.828;4.718;2023-07-29T05:10:50;16.70;99.90
18240;DHT22;9244;50.828;4.718;2023-07-29T05:13:16;16.80;99.90
18240;DHT22;9244;50.828;4.718;2023-07-29T05:15:41;16.80;99.90
18240;DHT22;9244;50.828;4.718;2023-07-29T05:18:07;16.80;99.90
18240;DHT22;9244;50.828;4.718;2023-07-29T05:20:33;16.80;99.90
18240;DHT22;9244;50.828;4.718;2023-07-29T05:22:58;16.90;99.90
18240;DHT22;9244;50.828;4.718;2023-07-29T05:25:24;17.00;99.90
18240;DHT22;9244;50.828;4.718;2023-07-29T05:27:49;17.00;99.90
18240;DHT22;9244;50.828;4.718;2023-07-29T05:30:15;17.00;99.90
18240;DHT22;9244;50.828;4.718;2023-07-29T05:32:41;17.00;99.90
18240;DHT22;9244;50.828;4.718;2023-07-29T05:35:07;17.00;99.90
18240;DHT22;9244;50.828;4.718;2023-07-29T05:37:32;17.20;99.90
18240;DHT22;9244;50.828;4.718;2023-07-29T05:39:58;17.50;99.90
18240;DHT22;9244;50.828;4.718;2023-07-29T05:42:24;17.60;99.90
18240;DHT22;9244;50.828;4.718;2023-07-29T05:44:49;18.00;99.90
18240;DHT22;9244;50.828;4.718;2023-07-29T05:47:15;18.80;99.90
18240;DHT22;9244;50.828;4.718;2023-07-29T05:49:41;18.90;99.90
18240;DHT22;9244;50.828;4.718;2023-07-29T05:52:07;18.70;99.90
18240;DHT22;9244;50.828;4.718;2023-07-29T05:54:33;18.50;99.90
18240;DHT22;9244;50.828;4.718;2023-07-29T05:56:58;19.30;99.90
18240;DHT22;9244;50.828;4.718;2023-07-29T05:59:24;20.20;99.90
18240;DHT22;9244;50.828;4.718;2023-07-29T06:01:49;20.00;99.90
18240;DHT22;9244;50.828;4.718;2023-07-29T06:04:15;19.30;99.90
18240;DHT22;9244;50.828;4.718;2023-07-29T06:06:40;18.90;99.90
18240;DHT22;9244;50.828;4.718;2023-07-29T06:09:06;20.00;99.90
18240;DHT22;9244;50.828;4.718;2023-07-29T06:11:32;21.40;99.90
18240;DHT22;9244;50.828;4.718;2023-07-29T06:13:57;22.50;99.90
18240;DHT22;9244;50.828;4.718;2023-07-29T06:16:23;22.20;99.90
18240;DHT22;9244;50.828;4.718;2023-07-29T06:18:49;21.10;99.90
18240;DHT22;9244;50.828;4.718;2023-07-29T06:21:14;20.20;99.90
18240;DHT22;9244;50.828;4.718;2023-07-29T06:23:43;19.50;99.90
18240;DHT22;9244;50.828;4.718;2023-07-29T06:26:09;20.70;99.90
18240;DHT22;9244;50.828;4.718;2023-07-29T06:28:34;21.80;99.90
18240;DHT22;9244;50.828;4.718;2023-07-29T06:31:01;22.80;99.90
18240;DHT22;9244;50.828;4.718;2023-07-29T06:33:27;23.60;99.90
18240;DHT22;9244;50.828;4.718;2023-07-29T06:35:52;24.30;99.90
18240;DHT22;9244;50.828;4.718;2023-07-29T06:38:18;24.30;99.90
18240;DHT22;9244;50.828;4.718;2023-07-29T06:40:47;24.60;99.90
18240;DHT22;9244;50.828;4.718;2023-07-29T06:43:13;24.60;99.90
18240;DHT22;9244;50.828;4.718;2023-07-29T06:45:39;24.20;99.90
18240;DHT22;9244;50.828;4.718;2023-07-29T06:48:04;24.10;99.90
18240;DHT22;9244;50.828;4.718;2023-07-29T06:50:30;24.30;99.90
18240;DHT22;9244;50.828;4.718;2023-07-29T06:52:56;24.30;99.90
18240;DHT22;9244;50.828;4.718;2023-07-29T06:55:21;24.10;99.90
18240;DHT22;9244;50.828;4.718;2023-07-29T06:57:47;23.70;99.90
18240;DHT22;9244;50.828;4.718;2023-07-29T07:00:13;23.00;99.90
18240;DHT22;9244;50.828;4.718;2023-07-29T07:02:38;21.90;99.90
18240;DHT22;9244;50.828;4.718;2023-07-29T07:05:04;21.30;99.90
18240;DHT22;9244;50.828;4.718;2023-07-29T07:07:30;20.90;99.90
18240;DHT22;9244;50.828;4.718;2023-07-29T07:09:56;20.70;99.90
18240;DHT22;9244;50.828;4.718;2023-07-29T07:12:22;20.60;99.90
18240;DHT22;9244;50.828;4.718;2023-07-29T07:14:47;20.50;99.90
18240;DHT22;9244;50.828;4.718;2023-07-29T07:17:13;20.40;99.90
18240;DHT22;9244;50.828;4.718;2023-07-29T07:19:39;20.30;99.90
18240;DHT22;9244;50.828;4.718;2023-07-29T07:22:04;20.20;99.90
18240;DHT22;9244;50.828;4.718;2023-07-29T07:24:30;20.20;99.90
18240;DHT22;9244;50.828;4.718;2023-07-29T07:26:56;20.00;99.90
18240;DHT22;9244;50.828;4.718;2023-07-29T07:29:22;20.10;99.90
18240;DHT22;9244;50.828;4.718;2023-07-29T07:31:52;20.10;99.90
18240;DHT22;9244;50.828;4.718;2023-07-29T07:34:22;20.20;99.90
18240;DHT22;9244;50.828;4.718;2023-07-29T07:36:48;20.10;99.90
18240;DHT22;9244;50.828;4.718;2023-07-29T07:39:13;20.10;99.90
18240;DHT22;9244;50.828;4.718;2023-07-29T07:41:40;20.40;99.90
18240;DHT22;9244;50.828;4.718;2023-07-29T07:44:06;20.70;99.90
18240;DHT22;9244;50.828;4.718;2023-07-29T07:46:31;20.50;99.90
18240;DHT22;9244;50.828;4.718;2023-07-29T07:48:57;20.40;99.90
18240;DHT22;9244;50.828;4.718;2023-07-29T07:51:22;20.20;99.90
18240;DHT22;9244;50.828;4.718;2023-07-29T07:53:48;20.00;99.90
18240;DHT22;9244;50.828;4.718;2023-07-29T07:56:14;20.00;99.90
18240;DHT22;9244;50.828;4.718;2023-07-29T07:58:40;19.90;99.90
18240;DHT22;9244;50.828;4.718;2023-07-29T08:01:08;19.90;99.90
18240;DHT22;9244;50.828;4.718;2023-07-29T08:03:35;19.90;99.90
18240;DHT22;9244;50.828;4.718;2023-07-29T08:06:01;19.90;99.90
18240;DHT22;9244;50.828;4.718;2023-07-29T08:08:27;19.90;99.90
18240;DHT22;9244;50.828;4.718;2023-07-29T08:10:54;20.10;99.90
18240;DHT22;9244;50.828;4.718;2023-07-29T08:13:20;20.40;99.90
18240;DHT22;9244;50.828;4.718;2023-07-29T08:15:48;20.50;99.90
18240;DHT22;9244;50.828;4.718;2023-07-29T08:18:13;20.60;99.90
18240;DHT22;9244;50.828;4.718;2023-07-29T08:20:39;20.60;99.90
18240;DHT22;9244;50.828;4.718;2023-07-29T08:23:04;21.10;99.90
18240;DHT22;9244;50.828;4.718;2023-07-29T08:25:30;21.50;99.90
18240;DHT22;9244;50.828;4.718;2023-07-29T08:27:56;21.70;99.90
18240;DHT22;9244;50.828;4.718;2023-07-29T08:30:22;21.90;99.90
18240;DHT22;9244;50.828;4.718;2023-07-29T08:32:47;22.10;99.90
18240;DHT22;9244;50.828;4.718;2023-07-29T08:35:13;21.80;99.90
18240;DHT22;9244;50.828;4.718;2023-07-29T08:37:39;22.10;99.90
18240;DHT22;9244;50.828;4.718;2023-07-29T08:40:05;22.30;99.90
18240;DHT22;9244;50.828;4.718;2023-07-29T08:42:32;22.60;99.90
18240;DHT22;9244;50.828;4.718;2023-07-29T08:45:07;22.50;99.90
18240;DHT22;9244;50.828;4.718;2023-07-29T08:47:37;22.70;99.90
18240;DHT22;9244;50.828;4.718;2023-07-29T08:50:03;22.20;99.90
18240;DHT22;9244;50.828;4.718;2023-07-29T08:52:29;22.00;99.90
18240;DHT22;9244;50.828;4.718;2023-07-29T08:54:58;21.90;99.90
18240;DHT22;9244;50.828;4.718;2023-07-29T08:57:23;21.80;99.90
18240;DHT22;9244;50.828;4.718;2023-07-29T08:59:50;21.90;99.90
18240;DHT22;9244;50.828;4.718;2023-07-29T09:02:15;21.90;99.90
18240;DHT22;9244;50.828;4.718;2023-07-29T09:04:41;22.30;99.90
18240;DHT22;9244;50.828;4.718;2023-07-29T09:07:08;22.30;99.90
18240;DHT22;9244;50.828;4.718;2023-07-29T09:09:34;22.20;99.90
18240;DHT22;9244;50.828;4.718;2023-07-29T09:11:59;22.30;99.90
18240;DHT22;9244;50.828;4.718;2023-07-29T09:14:25;22.40;99.90
18240;DHT22;9244;50.828;4.718;2023-07-29T09:16:52;22.50;99.90
18240;DHT22;9244;50.828;4.718;2023-07-29T09:19:18;22.80;99.90
18240;DHT22;9244;50.828;4.718;2023-07-29T09:21:46;23.30;99.90
18240;DHT22;9244;50.828;4.718;2023-07-29T09:24:12;23.70;99.90
18240;DHT22;9244;50.828;4.718;2023-07-29T09:26:51;23.80;99.90
18240;DHT22;9244;50.828;4.718;2023-07-29T09:29:22;23.80;99.90
18240;DHT22;9244;50.828;4.718;2023-07-29T09:31:49;23.60;99.90
18240;DHT22;9244;50.828;4.718;2023-07-29T09:34:15;23.70;99.90
18240;DHT22;9244;50.828;4.718;2023-07-29T09:36:42;23.40;99.90
18240;DHT22;9244;50.828;4.718;2023-07-29T09:39:12;23.30;99.90
18240;DHT22;9244;50.828;4.718;2023-07-29T09:41:38;23.00;99.90
18240;DHT22;9244;50.828;4.718;2023-07-29T09:44:04;22.80;99.90
18240;DHT22;9244;50.828;4.718;2023-07-29T09:46:35;22.80;99.90
18240;DHT22;9244;50.828;4.718;2023-07-29T09:49:05;22.70;99.90
18240;DHT22;9244;50.828;4.718;2023-07-29T09:51:31;23.40;99.90
18240;DHT22;9244;50.828;4.718;2023-07-29T09:53:56;23.20;99.90
18240;DHT22;9244;50.828;4.718;2023-07-29T09:56:25;23.10;99.90
18240;DHT22;9244;50.828;4.718;2023-07-29T09:58:57;23.00;99.90
18240;DHT22;9244;50.828;4.718;2023-07-29T10:01:23;22.80;99.90
18240;DHT22;9244;50.828;4.718;2023-07-29T10:03:49;22.90;99.90
18240;DHT22;9244;50.828;4.718;2023-07-29T10:06:15;23.10;99.90
18240;DHT22;9244;50.828;4.718;2023-07-29T10:08:42;23.10;99.90
18240;DHT22;9244;50.828;4.718;2023-07-29T10:11:09;23.30;99.90
18240;DHT22;9244;50.828;4.718;2023-07-29T10:13:36;23.30;99.90
18240;DHT22;9244;50.828;4.718;2023-07-29T10:16:02;23.40;99.90
18240;DHT22;9244;50.828;4.718;2023-07-29T10:18:29;23.10;99.90
18240;DHT22;9244;50.828;4.718;2023-07-29T10:20:58;22.90;99.90
18240;DHT22;9244;50.828;4.718;2023-07-29T10:23:25;22.60;99.90
18240;DHT22;9244;50.828;4.718;2023-07-29T10:26:05;22.40;99.90
18240;DHT22;9244;50.828;4.718;2023-07-29T10:28:32;22.10;99.90
18240;DHT22;9244;50.828;4.718;2023-07-29T10:30:58;21.90;99.90
18240;DHT22;9244;50.828;4.718;2023-07-29T10:33:25;21.70;99.90
18240;DHT22;9244;50.828;4.718;2023-07-29T10:35:52;21.40;99.90
18240;DHT22;9244;50.828;4.718;2023-07-29T10:38:21;20.80;99.90
18240;DHT22;9244;50.828;4.718;2023-07-29T10:43:40;20.10;99.90
18240;DHT22;9244;50.828;4.718;2023-07-29T10:46:21;20.00;99.90
18240;DHT22;9244;50.828;4.718;2023-07-29T10:51:34;20.30;99.90
18240;DHT22;9244;50.828;4.718;2023-07-29T10:54:11;20.60;99.90
18240;DHT22;9244;50.828;4.718;2023-07-29T10:56:42;20.90;99.90
18240;DHT22;9244;50.828;4.718;2023-07-29T11:01:51;21.30;99.90
18240;DHT22;9244;50.828;4.718;2023-07-29T11:15:28;20.90;99.90
18240;DHT22;9244;50.828;4.718;2023-07-29T11:18:01;21.00;99.90
18240;DHT22;9244;50.828;4.718;2023-07-29T11:20:29;21.10;99.90
18240;DHT22;9244;50.828;4.718;2023-07-29T11:22:56;21.20;99.90
18240;DHT22;9244;50.828;4.718;2023-07-29T11:25:23;21.30;99.90
18240;DHT22;9244;50.828;4.718;2023-07-29T11:27:51;21.50;99.90
18240;DHT22;9244;50.828;4.718;2023-07-29T11:30:17;21.90;99.90
18240;DHT22;9244;50.828;4.718;2023-07-29T11:32:44;21.90;99.90
18240;DHT22;9244;50.828;4.718;2023-07-29T11:35:15;21.80;99.90
18240;DHT22;9244;50.828;4.718;2023-07-29T11:37:43;21.50;99.90
18240;DHT22;9244;50.828;4.718;2023-07-29T11:40:09;21.40;99.90
18240;DHT22;9244;50.828;4.718;2023-07-29T11:42:38;21.20;99.90
18240;DHT22;9244;50.828;4.718;2023-07-29T11:45:05;21.20;99.90
18240;DHT22;9244;50.828;4.718;2023-07-29T11:47:35;21.10;99.90
18240;DHT22;9244;50.828;4.718;2023-07-29T11:50:02;20.80;99.90
18240;DHT22;9244;50.828;4.718;2023-07-29T11:52:29;20.00;99.90
18240;DHT22;9244;50.828;4.718;2023-07-29T11:54:57;19.80;99.90
18240;DHT22;9244;50.828;4.718;2023-07-29T11:57:23;19.70;99.90
18240;DHT22;9244;50.828;4.718;2023-07-29T11:59:49;19.60;99.90
18240;DHT22;9244;50.828;4.718;2023-07-29T12:02:20;19.70;99.90
18240;DHT22;9244;50.828;4.718;2023-07-29T12:04:47;19.80;99.90
18240;DHT22;9244;50.828;4.718;2023-07-29T12:07:14;20.40;99.90
18240;DHT22;9244;50.828;4.718;2023-07-29T12:09:41;20.80;99.90
18240;DHT22;9244;50.828;4.718;2023-07-29T12:12:08;21.20;99.90
18240;DHT22;9244;50.828;4.718;2023-07-29T12:14:34;21.80;99.90
18240;DHT22;9244;50.828;4.718;2023-07-29T12:17:05;22.60;99.90
18240;DHT22;9244;50.828;4.718;2023-07-29T12:22:00;23.30;99.90
18240;DHT22;9244;50.828;4.718;2023-07-29T12:24:26;23.80;99.90
18240;DHT22;9244;50.828;4.718;2023-07-29T12:26:52;24.30;99.90
18240;DHT22;9244;50.828;4.718;2023-07-29T12:29:19;23.90;99.90
18240;DHT22;9244;50.828;4.718;2023-07-29T12:31:48;23.40;99.90
18240;DHT22;9244;50.828;4.718;2023-07-29T12:34:20;23.00;99.90
18240;DHT22;9244;50.828;4.718;2023-07-29T12:36:48;23.00;99.90
18240;DHT22;9244;50.828;4.718;2023-07-29T12:39:30;23.00;99.90
18240;DHT22;9244;50.828;4.718;2023-07-29T12:41:58;23.00;99.90
18240;DHT22;9244;50.828;4.718;2023-07-29T12:44:25;22.70;99.90
18240;DHT22;9244;50.828;4.718;2023-07-29T12:46:51;22.20;99.90
18240;DHT22;9244;50.828;4.718;2023-07-29T12:49:17;21.80;99.90
18240;DHT22;9244;50.828;4.718;2023-07-29T12:51:43;21.70;99.90
18240;DHT22;9244;50.828;4.718;2023-07-29T12:54:09;21.50;99.90
18240;DHT22;9244;50.828;4.718;2023-07-29T12:56:35;21.10;99.90
18240;DHT22;9244;50.828;4.718;2023-07-29T12:59:01;20.60;99.90
18240;DHT22;9244;50.828;4.718;2023-07-29T13:01:28;20.80;99.90
18240;DHT22;9244;50.828;4.718;2023-07-29T13:03:55;21.20;99.90
18240;DHT22;9244;50.828;4.718;2023-07-29T13:06:21;21.60;99.90
18240;DHT22;9244;50.828;4.718;2023-07-29T13:08:47;22.00;99.90
18240;DHT22;9244;50.828;4.718;2023-07-29T13:11:14;22.70;99.90
18240;DHT22;9244;50.828;4.718;2023-07-29T13:13:40;23.10;99.90
18240;DHT22;9244;50.828;4.718;2023-07-29T13:16:06;23.40;99.90
18240;DHT22;9244;50.828;4.718;2023-07-29T13:18:32;23.50;99.90
18240;DHT22;9244;50.828;4.718;2023-07-29T13:20:57;23.40;99.90
18240;DHT22;9244;50.828;4.718;2023-07-29T13:23:24;23.60;99.90
18240;DHT22;9244;50.828;4.718;2023-07-29T13:25:49;23.50;99.90
18240;DHT22;9244;50.828;4.718;2023-07-29T13:28:16;23.70;99.90
18240;DHT22;9244;50.828;4.718;2023-07-29T13:30:42;23.90;99.90
18240;DHT22;9244;50.828;4.718;2023-07-29T13:33:07;23.30;99.90
18240;DHT22;9244;50.828;4.718;2023-07-29T13:35:33;23.50;99.90
18240;DHT22;9244;50.828;4.718;2023-07-29T13:38:00;23.40;99.90
18240;DHT22;9244;50.828;4.718;2023-07-29T13:40:25;23.20;99.90
18240;DHT22;9244;50.828;4.718;2023-07-29T13:42:51;22.90;99.90
18240;DHT22;9244;50.828;4.718;2023-07-29T13:45:18;22.90;99.90
18240;DHT22;9244;50.828;4.718;2023-07-29T13:47:44;23.20;99.90
18240;DHT22;9244;50.828;4.718;2023-07-29T13:50:10;23.40;99.90
18240;DHT22;9244;50.828;4.718;2023-07-29T13:52:36;23.30;99.90
18240;DHT22;9244;50.828;4.718;2023-07-29T13:55:03;23.40;99.90
18240;DHT22;9244;50.828;4.718;2023-07-29T13:57:29;23.40;99.90
18240;DHT22;9244;50.828;4.718;2023-07-29T13:59:54;23.60;99.90
18240;DHT22;9244;50.828;4.718;2023-07-29T14:02:20;24.00;99.90
18240;DHT22;9244;50.828;4.718;2023-07-29T14:04:45;24.10;99.90
18240;DHT22;9244;50.828;4.718;2023-07-29T14:07:11;23.90;99.90
18240;DHT22;9244;50.828;4.718;2023-07-29T14:09:37;23.70;99.90
18240;DHT22;9244;50.828;4.718;2023-07-29T14:12:04;23.40;99.90
18240;DHT22;9244;50.828;4.718;2023-07-29T14:14:30;22.90;99.90
18240;DHT22;9244;50.828;4.718;2023-07-29T14:16:55;22.90;99.90
18240;DHT22;9244;50.828;4.718;2023-07-29T14:19:21;22.90;99.90
18240;DHT22;9244;50.828;4.718;2023-07-29T14:21:48;22.80;99.90
18240;DHT22;9244;50.828;4.718;2023-07-29T14:24:13;22.70;99.90
18240;DHT22;9244;50.828;4.718;2023-07-29T14:26:40;23.00;99.90
18240;DHT22;9244;50.828;4.718;2023-07-29T14:29:05;23.20;99.90
18240;DHT22;9244;50.828;4.718;2023-07-29T14:31:31;23.30;99.90
18240;DHT22;9244;50.828;4.718;2023-07-29T14:33:57;24.00;99.90
18240;DHT22;9244;50.828;4.718;2023-07-29T14:36:23;23.80;99.90
18240;DHT22;9244;50.828;4.718;2023-07-29T14:38:49;23.50;99.90
18240;DHT22;9244;50.828;4.718;2023-07-29T14:41:15;23.50;99.90
18240;DHT22;9244;50.828;4.718;2023-07-29T14:43:40;23.30;99.90
18240;DHT22;9244;50.828;4.718;2023-07-29T14:46:06;23.20;99.90
18240;DHT22;9244;50.828;4.718;2023-07-29T14:48:32;23.40;99.90
18240;DHT22;9244;50.828;4.718;2023-07-29T14:50:57;23.30;99.90
18240;DHT22;9244;50.828;4.718;2023-07-29T14:53:23;23.00;99.90
18240;DHT22;9244;50.828;4.718;2023-07-29T14:55:49;23.00;99.90
18240;DHT22;9244;50.828;4.718;2023-07-29T14:58:15;22.90;99.90
18240;DHT22;9244;50.828;4.718;2023-07-29T15:00:40;23.00;99.90
18240;DHT22;9244;50.828;4.718;2023-07-29T15:03:06;23.20;99.90
18240;DHT22;9244;50.828;4.718;2023-07-29T15:05:32;23.30;99.90
18240;DHT22;9244;50.828;4.718;2023-07-29T15:07:58;23.30;99.90
18240;DHT22;9244;50.828;4.718;2023-07-29T15:10:24;23.10;99.90
18240;DHT22;9244;50.828;4.718;2023-07-29T15:12:51;22.90;99.90
18240;DHT22;9244;50.828;4.718;2023-07-29T15:15:16;23.20;99.90
18240;DHT22;9244;50.828;4.718;2023-07-29T15:17:42;23.10;99.90
18240;DHT22;9244;50.828;4.718;2023-07-29T15:20:08;23.10;99.90
18240;DHT22;9244;50.828;4.718;2023-07-29T15:22:34;23.10;99.90
18240;DHT22;9244;50.828;4.718;2023-07-29T15:25:00;22.80;99.90
18240;DHT22;9244;50.828;4.718;2023-07-29T15:27:30;22.40;99.90
18240;DHT22;9244;50.828;4.718;2023-07-29T15:29:56;22.00;99.90
18240;DHT22;9244;50.828;4.718;2023-07-29T15:32:22;21.90;99.90
18240;DHT22;9244;50.828;4.718;2023-07-29T15:34:48;22.10;99.90
18240;DHT22;9244;50.828;4.718;2023-07-29T15:37:14;22.60;99.90
18240;DHT22;9244;50.828;4.718;2023-07-29T15:39:40;22.80;99.90
18240;DHT22;9244;50.828;4.718;2023-07-29T15:42:06;22.70;99.90
18240;DHT22;9244;50.828;4.718;2023-07-29T15:44:32;22.60;99.90
18240;DHT22;9244;50.828;4.718;2023-07-29T15:46:58;22.60;99.90
18240;DHT22;9244;50.828;4.718;2023-07-29T15:49:24;22.80;99.90
18240;DHT22;9244;50.828;4.718;2023-07-29T15:51:50;22.90;99.90
18240;DHT22;9244;50.828;4.718;2023-07-29T15:54:16;22.80;99.90
18240;DHT22;9244;50.828;4.718;2023-07-29T15:56:43;22.30;99.90
18240;DHT22;9244;50.828;4.718;2023-07-29T15:59:08;22.50;99.90
18240;DHT22;9244;50.828;4.718;2023-07-29T16:01:34;22.70;99.90
18240;DHT22;9244;50.828;4.718;2023-07-29T16:04:00;22.90;99.90
18240;DHT22;9244;50.828;4.718;2023-07-29T16:06:26;22.90;99.90
18240;DHT22;9244;50.828;4.718;2023-07-29T16:08:52;22.80;99.90